Allen Park, Michigan
Current Conditions -  °F | °C
As of 1:53 PM on Friday 21 Nov 2014 (Local Time) from KDTW Reporting Station
Few Clouds Few Clouds  
Wind Chill: 16°   Ceiling: Unl
Heat Index: 27°   Visibility: 10mi
Dew Point: 11°   Wind: 13mph
Humidity: 51%   Direction: 220°SW
Pressure: 30.46"   Gusts: NA
Location:  42.26°N, 83.22°W
Report Text: KDTW 211853Z 22011KT 10SM FEW040 M03/M12 A3046 RMK AO2 SLP325 T10281117
Loading
Personal Weather Stations






























Interactive Weather Map New forecast layout! Learn more

10-Day Weather Forecast

Advertisements
Track Severe Weather on mobile